DAL1499 KMSP-KORD
Flight info
| Callsign | DAL1499 |
|---|---|
| Flight time | 0h 57m |
| Altitude | 31000 |
| Route | RST1 RST DCT ZZIPR FYTTE7 |
| Aircraft | B739/M-S/U |
Departure
| Time | 2026-05-06 20:23 |
|---|---|
| Airport | Minneapolis–Saint Paul International Airport / Wold–Chamberlain Field (KMSP) |
Arrival
| Time | 2026-05-06 21:20 |
|---|---|
| Airport | Chicago O'Hare International Airport (KORD) |
| Time | Latitude | Longitude | Altitude | Speed | Heading |
|---|---|---|---|---|---|
| 2026-05-06 20:10 | 44.88311 | -93.21508 | 835 ft | 0 kts | 12° |
| 2026-05-06 20:13 | 44.88310 | -93.21508 | 835 ft | 0 kts | 12° |
| 2026-05-06 20:15 | 44.88291 | -93.21514 | 828 ft | 3 kts | 12° |
| 2026-05-06 20:16 | 44.88272 | -93.21513 | 830 ft | 3 kts | 317° |
| 2026-05-06 20:16 | 44.88267 | -93.21507 | 825 ft | 0 kts | 292° |
| 2026-05-06 20:19 | 44.88231 | -93.21568 | 830 ft | 12 kts | 185° |
| 2026-05-06 20:19 | 44.88179 | -93.21534 | 833 ft | 9 kts | 133° |
| 2026-05-06 20:19 | 44.88119 | -93.21473 | 830 ft | 12 kts | 154° |
| 2026-05-06 20:20 | 44.88046 | -93.21379 | 831 ft | 21 kts | 124° |
| 2026-05-06 20:20 | 44.87954 | -93.21206 | 831 ft | 22 kts | 121° |
| 2026-05-06 20:20 | 44.87863 | -93.20996 | 831 ft | 29 kts | 123° |
| 2026-05-06 20:20 | 44.87760 | -93.20763 | 832 ft | 27 kts | 122° |
| 2026-05-06 20:21 | 44.87655 | -93.20519 | 828 ft | 33 kts | 121° |
| 2026-05-06 20:21 | 44.87557 | -93.20294 | 827 ft | 25 kts | 121° |
| 2026-05-06 20:21 | 44.87486 | -93.20131 | 826 ft | 9 kts | 121° |
| 2026-05-06 20:21 | 44.87443 | -93.20076 | 828 ft | 8 kts | 169° |
| 2026-05-06 20:22 | 44.87391 | -93.20108 | 826 ft | 8 kts | 213° |
| 2026-05-06 20:22 | 44.87374 | -93.20180 | 827 ft | 10 kts | 303° |
| 2026-05-06 20:22 | 44.87481 | -93.20420 | 822 ft | 68 kts | 301° |
| 2026-05-06 20:22 | 44.87875 | -93.21332 | 836 ft | 145 kts | 301° |
| 2026-05-06 20:23 | 44.88460 | -93.22664 | 1456 ft | 171 kts | 301° |
| 2026-05-06 20:23 | 44.89061 | -93.24222 | 2228 ft | 197 kts | 287° |
| 2026-05-06 20:23 | 44.89012 | -93.26246 | 2956 ft | 217 kts | 252° |
| 2026-05-06 20:23 | 44.88103 | -93.27994 | 3708 ft | 235 kts | 223° |
| 2026-05-06 20:24 | 44.86560 | -93.29095 | 4270 ft | 258 kts | 204° |
| 2026-05-06 20:24 | 44.84844 | -93.29892 | 5245 ft | 264 kts | 198° |
| 2026-05-06 20:24 | 44.82986 | -93.29829 | 6270 ft | 276 kts | 165° |
| 2026-05-06 20:24 | 44.81238 | -93.28787 | 7254 ft | 281 kts | 158° |
| 2026-05-06 20:25 | 44.79431 | -93.27626 | 8079 ft | 288 kts | 158° |
| 2026-05-06 20:25 | 44.77578 | -93.26470 | 8975 ft | 294 kts | 159° |
| 2026-05-06 20:25 | 44.75681 | -93.25330 | 9889 ft | 301 kts | 160° |
| 2026-05-06 20:25 | 44.73666 | -93.24157 | 10207 ft | 326 kts | 160° |
| 2026-05-06 20:26 | 44.71477 | -93.22909 | 10443 ft | 352 kts | 160° |
| 2026-05-06 20:26 | 44.69157 | -93.21600 | 11003 ft | 364 kts | 160° |
| 2026-05-06 20:26 | 44.66780 | -93.20267 | 11785 ft | 369 kts | 160° |
| 2026-05-06 20:26 | 44.64377 | -93.18924 | 12615 ft | 374 kts | 161° |
| 2026-05-06 20:27 | 44.61993 | -93.17521 | 13399 ft | 380 kts | 157° |
| 2026-05-06 20:27 | 44.59597 | -93.15891 | 14162 ft | 385 kts | 155° |
| 2026-05-06 20:27 | 44.57187 | -93.14170 | 14839 ft | 391 kts | 155° |
| 2026-05-06 20:27 | 44.54751 | -93.12420 | 15517 ft | 396 kts | 155° |
| 2026-05-06 20:28 | 44.52279 | -93.10661 | 16205 ft | 401 kts | 155° |
| 2026-05-06 20:28 | 44.49770 | -93.08894 | 16895 ft | 406 kts | 155° |
| 2026-05-06 20:28 | 44.47226 | -93.07115 | 17565 ft | 411 kts | 155° |
| 2026-05-06 20:28 | 44.44648 | -93.05320 | 18232 ft | 416 kts | 155° |
| 2026-05-06 20:29 | 44.42047 | -93.03505 | 18927 ft | 418 kts | 156° |
| 2026-05-06 20:29 | 44.39423 | -93.01685 | 19542 ft | 423 kts | 156° |
| 2026-05-06 20:29 | 44.36802 | -92.99869 | 20091 ft | 428 kts | 156° |
| 2026-05-06 20:29 | 44.34118 | -92.98008 | 20674 ft | 432 kts | 156° |
| 2026-05-06 20:30 | 44.31404 | -92.96125 | 21294 ft | 436 kts | 156° |
| 2026-05-06 20:30 | 44.25897 | -92.92313 | 22454 ft | 445 kts | 156° |
| 2026-05-06 20:30 | 44.23113 | -92.90389 | 23027 ft | 449 kts | 156° |
| 2026-05-06 20:31 | 44.20425 | -92.88534 | 23565 ft | 453 kts | 156° |
| 2026-05-06 20:31 | 44.17593 | -92.86579 | 24043 ft | 456 kts | 156° |
| 2026-05-06 20:31 | 44.14739 | -92.84611 | 24592 ft | 457 kts | 157° |
| 2026-05-06 20:31 | 44.11911 | -92.82664 | 25083 ft | 460 kts | 157° |
| 2026-05-06 20:32 | 44.09027 | -92.80683 | 25570 ft | 463 kts | 157° |
| 2026-05-06 20:32 | 44.06119 | -92.78691 | 26025 ft | 466 kts | 158° |
| 2026-05-06 20:32 | 44.03197 | -92.76688 | 26553 ft | 467 kts | 158° |
| 2026-05-06 20:32 | 44.00290 | -92.74696 | 27212 ft | 465 kts | 158° |
| 2026-05-06 20:33 | 43.97435 | -92.72740 | 27901 ft | 461 kts | 159° |
| 2026-05-06 20:33 | 43.94564 | -92.70776 | 28635 ft | 458 kts | 159° |
| 2026-05-06 20:33 | 43.91712 | -92.68828 | 29332 ft | 456 kts | 159° |
| 2026-05-06 20:33 | 43.88868 | -92.66889 | 29981 ft | 455 kts | 160° |
| 2026-05-06 20:34 | 43.86025 | -92.64948 | 30548 ft | 453 kts | 160° |
| 2026-05-06 20:34 | 43.83198 | -92.63027 | 31022 ft | 453 kts | 160° |
| 2026-05-06 20:34 | 43.81321 | -92.61747 | 31076 ft | 455 kts | 159° |
| 2026-05-06 20:35 | 43.77333 | -92.58022 | 31088 ft | 464 kts | 144° |
| 2026-05-06 20:35 | 43.72926 | -92.51441 | 31098 ft | 471 kts | 135° |
| 2026-05-06 20:36 | 43.68683 | -92.44517 | 31095 ft | 472 kts | 135° |
| 2026-05-06 20:36 | 43.64355 | -92.37548 | 31095 ft | 485 kts | 135° |
| 2026-05-06 20:37 | 43.59899 | -92.30478 | 31053 ft | 493 kts | 136° |
| 2026-05-06 20:37 | 43.55387 | -92.23355 | 31094 ft | 493 kts | 137° |
| 2026-05-06 20:38 | 43.50863 | -92.16227 | 31090 ft | 493 kts | 137° |
| 2026-05-06 20:38 | 43.46345 | -92.09127 | 31090 ft | 493 kts | 137° |
| 2026-05-06 20:39 | 43.41825 | -92.02041 | 31087 ft | 492 kts | 137° |
| 2026-05-06 20:39 | 43.37340 | -91.95025 | 31083 ft | 490 kts | 137° |
| 2026-05-06 20:40 | 43.32831 | -91.87998 | 31090 ft | 489 kts | 138° |
| 2026-05-06 20:40 | 43.28318 | -91.80974 | 31065 ft | 490 kts | 138° |
| 2026-05-06 20:41 | 43.23901 | -91.74111 | 31065 ft | 490 kts | 138° |
| 2026-05-06 20:41 | 43.19408 | -91.67142 | 31054 ft | 491 kts | 138° |
| 2026-05-06 20:41 | 43.17461 | -91.63232 | 31050 ft | 505 kts | 122° |
| 2026-05-06 20:42 | 43.15974 | -91.58855 | 31085 ft | 507 kts | 120° |
| 2026-05-06 20:42 | 43.13074 | -91.50018 | 31077 ft | 509 kts | 120° |
| 2026-05-06 20:43 | 43.10073 | -91.41213 | 31086 ft | 511 kts | 121° |
| 2026-05-06 20:43 | 43.07006 | -91.32417 | 31094 ft | 513 kts | 121° |
| 2026-05-06 20:44 | 43.03948 | -91.23654 | 31083 ft | 514 kts | 121° |
| 2026-05-06 20:44 | 43.00876 | -91.14818 | 31050 ft | 515 kts | 122° |
| 2026-05-06 20:45 | 42.97796 | -91.05974 | 31076 ft | 515 kts | 123° |
| 2026-05-06 20:45 | 42.94707 | -90.97129 | 31084 ft | 517 kts | 123° |
| 2026-05-06 20:46 | 42.91598 | -90.88270 | 31087 ft | 518 kts | 123° |
| 2026-05-06 20:46 | 42.88497 | -90.79457 | 31089 ft | 518 kts | 123° |
| 2026-05-06 20:47 | 42.85361 | -90.70575 | 31067 ft | 519 kts | 123° |
| 2026-05-06 20:47 | 42.82222 | -90.61724 | 31069 ft | 519 kts | 124° |
| 2026-05-06 20:48 | 42.79069 | -90.52860 | 31071 ft | 519 kts | 124° |
| 2026-05-06 20:48 | 42.75932 | -90.44066 | 31056 ft | 519 kts | 124° |
| 2026-05-06 20:49 | 42.72770 | -90.35225 | 31073 ft | 519 kts | 124° |
| 2026-05-06 20:49 | 42.69605 | -90.26403 | 31051 ft | 516 kts | 124° |
| 2026-05-06 20:49 | 42.68042 | -90.22063 | 30804 ft | 507 kts | 124° |
| 2026-05-06 20:50 | 42.66488 | -90.17767 | 30162 ft | 505 kts | 125° |
| 2026-05-06 20:50 | 42.64934 | -90.13500 | 29183 ft | 509 kts | 125° |
| 2026-05-06 20:50 | 42.63355 | -90.09176 | 28127 ft | 513 kts | 125° |
| 2026-05-06 20:50 | 42.61760 | -90.04810 | 27084 ft | 517 kts | 124° |
| 2026-05-06 20:51 | 42.60164 | -90.00433 | 25980 ft | 520 kts | 124° |
| 2026-05-06 20:51 | 42.58576 | -89.96081 | 25052 ft | 522 kts | 125° |
| 2026-05-06 20:51 | 42.56978 | -89.91690 | 24401 ft | 516 kts | 125° |
| 2026-05-06 20:51 | 42.55398 | -89.87356 | 23839 ft | 508 kts | 125° |
| 2026-05-06 20:52 | 42.53837 | -89.83091 | 23171 ft | 502 kts | 125° |
| 2026-05-06 20:52 | 42.52302 | -89.78878 | 22499 ft | 497 kts | 122° |
| 2026-05-06 20:52 | 42.51231 | -89.74387 | 21839 ft | 504 kts | 104° |
| 2026-05-06 20:52 | 42.50719 | -89.69722 | 21343 ft | 496 kts | 102° |
| 2026-05-06 20:53 | 42.50258 | -89.65202 | 21172 ft | 471 kts | 102° |
| 2026-05-06 20:53 | 42.49797 | -89.60918 | 20956 ft | 451 kts | 103° |
| 2026-05-06 20:53 | 42.49312 | -89.56744 | 20570 ft | 444 kts | 103° |
| 2026-05-06 20:53 | 42.48809 | -89.52641 | 20145 ft | 439 kts | 103° |
| 2026-05-06 20:54 | 42.48301 | -89.48582 | 19721 ft | 434 kts | 103° |
| 2026-05-06 20:54 | 42.47807 | -89.44623 | 19325 ft | 429 kts | 103° |
| 2026-05-06 20:54 | 42.47315 | -89.40662 | 18947 ft | 424 kts | 103° |
| 2026-05-06 20:54 | 42.46830 | -89.36737 | 18559 ft | 419 kts | 102° |
| 2026-05-06 20:55 | 42.46354 | -89.32846 | 18226 ft | 409 kts | 102° |
| 2026-05-06 20:55 | 42.45897 | -89.29107 | 17859 ft | 399 kts | 102° |
| 2026-05-06 20:55 | 42.45441 | -89.25404 | 17411 ft | 397 kts | 102° |
| 2026-05-06 20:55 | 42.44987 | -89.21739 | 16968 ft | 394 kts | 102° |
| 2026-05-06 20:56 | 42.44532 | -89.18077 | 16503 ft | 392 kts | 102° |
| 2026-05-06 20:56 | 42.44088 | -89.14503 | 16136 ft | 388 kts | 102° |
| 2026-05-06 20:56 | 42.43640 | -89.10923 | 15763 ft | 383 kts | 102° |
| 2026-05-06 20:56 | 42.43189 | -89.07388 | 15378 ft | 380 kts | 102° |
| 2026-05-06 20:57 | 42.42883 | -89.05011 | 15082 ft | 377 kts | 102° |
| 2026-05-06 20:57 | 42.42303 | -89.00419 | 14772 ft | 366 kts | 102° |
| 2026-05-06 20:57 | 42.42020 | -88.98146 | 14713 ft | 358 kts | 101° |
| 2026-05-06 20:57 | 42.41471 | -88.93772 | 14210 ft | 356 kts | 101° |
| 2026-05-06 20:58 | 42.41189 | -88.91538 | 13943 ft | 356 kts | 101° |
| 2026-05-06 20:58 | 42.40777 | -88.88289 | 13573 ft | 353 kts | 101° |
| 2026-05-06 20:58 | 42.40363 | -88.85039 | 13224 ft | 349 kts | 101° |
| 2026-05-06 20:58 | 42.39950 | -88.81822 | 12844 ft | 345 kts | 101° |
| 2026-05-06 20:59 | 42.39538 | -88.78620 | 12429 ft | 344 kts | 101° |
| 2026-05-06 20:59 | 42.39130 | -88.75450 | 12127 ft | 339 kts | 101° |
| 2026-05-06 20:59 | 42.38731 | -88.72354 | 11980 ft | 327 kts | 101° |
| 2026-05-06 20:59 | 42.38342 | -88.69338 | 11676 ft | 324 kts | 101° |
| 2026-05-06 21:00 | 42.37956 | -88.66358 | 11381 ft | 320 kts | 101° |
| 2026-05-06 21:00 | 42.37570 | -88.63401 | 11072 ft | 317 kts | 101° |
| 2026-05-06 21:00 | 42.37189 | -88.60480 | 10945 ft | 314 kts | 101° |
| 2026-05-06 21:00 | 42.36812 | -88.57597 | 10667 ft | 311 kts | 101° |
| 2026-05-06 21:01 | 42.36436 | -88.54724 | 10320 ft | 310 kts | 101° |
| 2026-05-06 21:01 | 42.36064 | -88.51897 | 10024 ft | 307 kts | 100° |
| 2026-05-06 21:01 | 42.35687 | -88.49027 | 9720 ft | 305 kts | 100° |
| 2026-05-06 21:01 | 42.35325 | -88.46272 | 9543 ft | 297 kts | 101° |
| 2026-05-06 21:02 | 42.34976 | -88.43614 | 9298 ft | 292 kts | 101° |
| 2026-05-06 21:02 | 42.34621 | -88.40925 | 8962 ft | 291 kts | 101° |
| 2026-05-06 21:02 | 42.33921 | -88.38408 | 8588 ft | 288 kts | 126° |
| 2026-05-06 21:02 | 42.32743 | -88.36250 | 8303 ft | 284 kts | 129° |
| 2026-05-06 21:03 | 42.31574 | -88.34104 | 8045 ft | 282 kts | 128° |
| 2026-05-06 21:03 | 42.30413 | -88.31952 | 8016 ft | 285 kts | 128° |
| 2026-05-06 21:03 | 42.29193 | -88.29843 | 8002 ft | 283 kts | 132° |
| 2026-05-06 21:03 | 42.27919 | -88.27825 | 7993 ft | 282 kts | 133° |
| 2026-05-06 21:04 | 42.26636 | -88.25822 | 8008 ft | 282 kts | 133° |
| 2026-05-06 21:04 | 42.25861 | -88.24609 | 8002 ft | 284 kts | 133° |
| 2026-05-06 21:04 | 42.24566 | -88.22571 | 7996 ft | 286 kts | 133° |
| 2026-05-06 21:04 | 42.23273 | -88.20526 | 7992 ft | 286 kts | 133° |
| 2026-05-06 21:05 | 42.21982 | -88.18480 | 7986 ft | 287 kts | 133° |
| 2026-05-06 21:05 | 42.20707 | -88.16459 | 7993 ft | 286 kts | 133° |
| 2026-05-06 21:05 | 42.19283 | -88.14625 | 7973 ft | 281 kts | 154° |
| 2026-05-06 21:05 | 42.17515 | -88.13608 | 7993 ft | 276 kts | 163° |
| 2026-05-06 21:06 | 42.15717 | -88.12698 | 7993 ft | 276 kts | 163° |
| 2026-05-06 21:06 | 42.13917 | -88.11793 | 7999 ft | 276 kts | 163° |
| 2026-05-06 21:06 | 42.12122 | -88.10888 | 7999 ft | 276 kts | 163° |
| 2026-05-06 21:06 | 42.10314 | -88.09973 | 7988 ft | 276 kts | 163° |
| 2026-05-06 21:07 | 42.08527 | -88.09065 | 7856 ft | 272 kts | 163° |
| 2026-05-06 21:07 | 42.06765 | -88.08168 | 7561 ft | 270 kts | 163° |
| 2026-05-06 21:07 | 42.04996 | -88.07267 | 7223 ft | 271 kts | 163° |
| 2026-05-06 21:07 | 42.03259 | -88.06383 | 6894 ft | 269 kts | 163° |
| 2026-05-06 21:08 | 42.01495 | -88.05485 | 6480 ft | 267 kts | 163° |
| 2026-05-06 21:08 | 41.99779 | -88.04611 | 6058 ft | 266 kts | 163° |
| 2026-05-06 21:08 | 41.98052 | -88.03733 | 6008 ft | 266 kts | 163° |
| 2026-05-06 21:08 | 41.96322 | -88.02854 | 5991 ft | 267 kts | 163° |
| 2026-05-06 21:09 | 41.94571 | -88.01963 | 5994 ft | 269 kts | 163° |
| 2026-05-06 21:09 | 41.92822 | -88.01073 | 5972 ft | 268 kts | 163° |
| 2026-05-06 21:09 | 41.91078 | -88.00184 | 5974 ft | 267 kts | 162° |
| 2026-05-06 21:09 | 41.89482 | -87.98914 | 5967 ft | 270 kts | 136° |
| 2026-05-06 21:10 | 41.88559 | -87.96750 | 5998 ft | 278 kts | 105° |
| 2026-05-06 21:10 | 41.88372 | -87.94173 | 5989 ft | 280 kts | 89° |
| 2026-05-06 21:10 | 41.88396 | -87.91591 | 5976 ft | 279 kts | 88° |
| 2026-05-06 21:10 | 41.88423 | -87.88989 | 5972 ft | 277 kts | 88° |
| 2026-05-06 21:11 | 41.88436 | -87.86405 | 5981 ft | 276 kts | 89° |
| 2026-05-06 21:11 | 41.88439 | -87.83823 | 5964 ft | 275 kts | 89° |
| 2026-05-06 21:11 | 41.88438 | -87.81279 | 5698 ft | 271 kts | 89° |
| 2026-05-06 21:11 | 41.88436 | -87.78752 | 5211 ft | 270 kts | 89° |
| 2026-05-06 21:12 | 41.88434 | -87.76252 | 5056 ft | 266 kts | 89° |
| 2026-05-06 21:12 | 41.88432 | -87.73733 | 5006 ft | 273 kts | 89° |
| 2026-05-06 21:12 | 41.88430 | -87.71174 | 5000 ft | 276 kts | 89° |
| 2026-05-06 21:12 | 41.88426 | -87.68604 | 4999 ft | 275 kts | 89° |
| 2026-05-06 21:13 | 41.88421 | -87.66048 | 4980 ft | 271 kts | 89° |
| 2026-05-06 21:13 | 41.88564 | -87.63599 | 4863 ft | 256 kts | 71° |
| 2026-05-06 21:13 | 41.89421 | -87.61653 | 4675 ft | 234 kts | 39° |
| 2026-05-06 21:13 | 41.90798 | -87.60665 | 4265 ft | 220 kts | 5° |
| 2026-05-06 21:14 | 41.92269 | -87.60516 | 4058 ft | 221 kts | 356° |
| 2026-05-06 21:14 | 41.93808 | -87.60470 | 4016 ft | 221 kts | 356° |
| 2026-05-06 21:14 | 41.95335 | -87.60438 | 3999 ft | 217 kts | 355° |
| 2026-05-06 21:14 | 41.96846 | -87.60434 | 3997 ft | 215 kts | 349° |
| 2026-05-06 21:15 | 41.98143 | -87.61218 | 3987 ft | 203 kts | 309° |
| 2026-05-06 21:15 | 41.98652 | -87.62926 | 4004 ft | 200 kts | 275° |
| 2026-05-06 21:15 | 41.98774 | -87.64788 | 3995 ft | 203 kts | 275° |
| 2026-05-06 21:15 | 41.98848 | -87.66697 | 3919 ft | 205 kts | 271° |
| 2026-05-06 21:16 | 41.98860 | -87.68587 | 3683 ft | 198 kts | 270° |
| 2026-05-06 21:16 | 41.98856 | -87.70402 | 3448 ft | 190 kts | 270° |
| 2026-05-06 21:16 | 41.98851 | -87.72129 | 3174 ft | 179 kts | 271° |
| 2026-05-06 21:16 | 41.98847 | -87.73751 | 2928 ft | 168 kts | 271° |
| 2026-05-06 21:17 | 41.98844 | -87.75260 | 2720 ft | 159 kts | 271° |
| 2026-05-06 21:17 | 41.98842 | -87.76735 | 2510 ft | 156 kts | 271° |
| 2026-05-06 21:17 | 41.98840 | -87.78152 | 2306 ft | 147 kts | 271° |
| 2026-05-06 21:17 | 41.98838 | -87.79475 | 2118 ft | 137 kts | 271° |
| 2026-05-06 21:18 | 41.98827 | -87.80743 | 1933 ft | 137 kts | 269° |
| 2026-05-06 21:18 | 41.98807 | -87.82024 | 1764 ft | 140 kts | 270° |
| 2026-05-06 21:18 | 41.98819 | -87.83333 | 1535 ft | 140 kts | 271° |
| 2026-05-06 21:18 | 41.98837 | -87.84591 | 1332 ft | 134 kts | 269° |
| 2026-05-06 21:19 | 41.98831 | -87.85834 | 1185 ft | 132 kts | 269° |
| 2026-05-06 21:19 | 41.98831 | -87.87123 | 1042 ft | 142 kts | 267° |
| 2026-05-06 21:19 | 41.98830 | -87.88425 | 799 ft | 134 kts | 266° |
| 2026-05-06 21:19 | 41.98831 | -87.89609 | 662 ft | 117 kts | 269° |
| 2026-05-06 21:20 | 41.98832 | -87.90513 | 672 ft | 75 kts | 270° |
| 2026-05-06 21:20 | 41.98831 | -87.91011 | 669 ft | 33 kts | 270° |
| 2026-05-06 21:20 | 41.98832 | -87.91255 | 665 ft | 21 kts | 270° |
| 2026-05-06 21:20 | 41.98811 | -87.91441 | 665 ft | 20 kts | 242° |
| 2026-05-06 21:21 | 41.98734 | -87.91594 | 668 ft | 19 kts | 233° |
| 2026-05-06 21:21 | 41.98680 | -87.91746 | 670 ft | 14 kts | 263° |
| 2026-05-06 21:21 | 41.98618 | -87.91822 | 671 ft | 14 kts | 182° |
| 2026-05-06 21:21 | 41.98514 | -87.91822 | 667 ft | 18 kts | 180° |
| 2026-05-06 21:22 | 41.98381 | -87.91822 | 665 ft | 19 kts | 180° |
| 2026-05-06 21:22 | 41.98289 | -87.91798 | 670 ft | 9 kts | 97° |
| 2026-05-06 21:22 | 41.98289 | -87.91686 | 668 ft | 19 kts | 90° |
| 2026-05-06 21:22 | 41.98289 | -87.91485 | 667 ft | 23 kts | 89° |
| 2026-05-06 21:23 | 41.98290 | -87.91277 | 666 ft | 22 kts | 90° |
| 2026-05-06 21:23 | 41.98290 | -87.91073 | 661 ft | 22 kts | 90° |
| 2026-05-06 21:23 | 41.98290 | -87.90872 | 660 ft | 21 kts | 90° |
| 2026-05-06 21:23 | 41.98290 | -87.90678 | 657 ft | 21 kts | 89° |
| 2026-05-06 21:24 | 41.98291 | -87.90484 | 657 ft | 20 kts | 90° |
| 2026-05-06 21:24 | 41.98290 | -87.90296 | 660 ft | 20 kts | 89° |
| 2026-05-06 21:24 | 41.98290 | -87.90101 | 661 ft | 22 kts | 90° |
| 2026-05-06 21:24 | 41.98290 | -87.89909 | 666 ft | 18 kts | 90° |
| 2026-05-06 21:25 | 41.98291 | -87.89702 | 665 ft | 25 kts | 89° |
| 2026-05-06 21:25 | 41.98269 | -87.89551 | 663 ft | 15 kts | 129° |
| 2026-05-06 21:25 | 41.98188 | -87.89441 | 663 ft | 17 kts | 135° |
| 2026-05-06 21:25 | 41.98105 | -87.89335 | 660 ft | 15 kts | 150° |
| 2026-05-06 21:26 | 41.98022 | -87.89396 | 656 ft | 16 kts | 231° |
| 2026-05-06 21:26 | 41.97928 | -87.89515 | 663 ft | 19 kts | 200° |
| 2026-05-06 21:26 | 41.97792 | -87.89525 | 658 ft | 21 kts | 179° |
| 2026-05-06 21:26 | 41.97647 | -87.89523 | 657 ft | 18 kts | 180° |
| 2026-05-06 21:27 | 41.97557 | -87.89546 | 656 ft | 0 kts | 224° |
| 2026-05-06 21:27 | 41.97555 | -87.89550 | 656 ft | 3 kts | 227° |
| 2026-05-06 21:27 | 41.97548 | -87.89566 | 657 ft | 3 kts | 245° |
| 2026-05-06 21:27 | 41.97562 | -87.89628 | 657 ft | 10 kts | 295° |
| 2026-05-06 21:28 | 41.97586 | -87.89710 | 658 ft | 9 kts | 289° |
| 2026-05-06 21:28 | 41.97601 | -87.89759 | 659 ft | 2 kts | 304° |
| 2026-05-06 21:28 | 41.97610 | -87.89769 | 659 ft | 7 kts | 322° |
| 2026-05-06 21:28 | 41.97644 | -87.89779 | 659 ft | 3 kts | 356° |
| 2026-05-06 21:29 | 41.97656 | -87.89781 | 659 ft | 0 kts | 356° |